Time;durP1;ratioP1;P1;durP2;ratioP2;P2;SDS_P1;SDS_P2;PMS_P1;PMS_P2;Temp;Humidity;BMP_temperature;BMP_pressure;BME280_temperature;BME280_humidity;BME280_pressure;Samples;Min_cycle;Max_cycle;Signal;HPM_P1;HPM_P2
2023/11/08 00:00:05;;;;;;;0.60;0.60;;;7.20;99.90;;;;;;4987542;28;20247;-85
2023/11/08 00:02:32;;;;;;;0.88;0.88;;;7.30;99.90;;;;;;4978629;28;20211;-84
2023/11/08 00:05:00;;;;;;;0.70;0.70;;;7.20;99.90;;;;;;4984476;28;20419;-85
2023/11/08 00:07:27;;;;;;;2.28;2.08;;;7.30;99.90;;;;;;4983282;28;20222;-85
2023/11/08 00:09:54;;;;;;;0.50;0.50;;;7.30;99.90;;;;;;4984095;28;20306;-85
2023/11/08 00:12:21;;;;;;;0.80;0.80;;;7.50;99.90;;;;;;4985103;28;20211;-86
2023/11/08 00:14:48;;;;;;;0.60;0.60;;;7.60;99.90;;;;;;4983878;28;20250;-86
2023/11/08 00:17:16;;;;;;;3.13;2.92;;;7.60;99.90;;;;;;4987009;28;20234;-86
2023/11/08 00:19:43;;;;;;;0.95;0.88;;;7.70;99.90;;;;;;4984945;28;20226;-86
2023/11/08 00:22:11;;;;;;;1.42;1.35;;;7.70;99.90;;;;;;4982930;28;20306;-85
2023/11/08 00:24:38;;;;;;;3.67;1.73;;;7.80;99.90;;;;;;4978538;28;20206;-86
2023/11/08 00:27:05;;;;;;;1.30;1.30;;;7.80;99.90;;;;;;4985444;28;20245;-85
2023/11/08 00:29:32;;;;;;;0.57;0.57;;;7.90;99.90;;;;;;4985920;28;20254;-85
2023/11/08 00:31:59;;;;;;;1.52;1.30;;;7.90;99.90;;;;;;4985948;28;20268;-85
2023/11/08 00:34:27;;;;;;;0.60;0.60;;;8.00;99.90;;;;;;4986798;28;20233;-87
2023/11/08 00:36:55;;;;;;;0.85;0.85;;;8.00;99.90;;;;;;4987426;28;20207;-86
2023/11/08 00:39:23;;;;;;;0.50;0.50;;;8.00;99.90;;;;;;4987421;28;20206;-85
2023/11/08 00:41:50;;;;;;;0.50;0.50;;;8.00;99.90;;;;;;4997302;28;20190;-86
2023/11/08 00:44:16;;;;;;;5.28;3.13;;;8.00;99.90;;;;;;4999430;28;20234;-88
2023/11/08 00:46:43;;;;;;;0.50;0.50;;;8.00;99.90;;;;;;4998809;28;20202;-84
2023/11/08 00:49:12;;;;;;;0.80;0.80;;;8.00;99.90;;;;;;4996984;28;20233;-83
2023/11/08 00:51:40;;;;;;;0.88;0.88;;;7.90;99.90;;;;;;4996539;28;20193;-86
2023/11/08 00:54:07;;;;;;;0.98;0.88;;;7.90;99.90;;;;;;4990728;28;20329;-85
2023/11/08 00:56:35;;;;;;;1.67;1.35;;;7.90;99.90;;;;;;4980468;28;20210;-84
2023/11/08 00:59:02;;;;;;;0.60;0.60;;;7.90;99.90;;;;;;4985810;28;20233;-83
2023/11/08 01:01:35;;;;;;;1.60;1.50;;;7.90;99.90;;;;;;4964629;28;20199;-84
2023/11/08 01:04:06;;;;;;;1.02;1.02;;;7.90;99.90;;;;;;4976987;28;20208;-85
2023/11/08 01:06:34;;;;;;;0.90;0.90;;;8.00;99.90;;;;;;4975177;28;20270;-85
2023/11/08 01:09:01;;;;;;;1.13;1.13;;;8.00;99.90;;;;;;4981366;28;20245;-85
2023/11/08 01:11:28;;;;;;;1.40;1.40;;;8.00;99.90;;;;;;4982316;28;20248;-85
2023/11/08 01:13:55;;;;;;;0.75;0.75;;;8.00;99.90;;;;;;4983163;28;20207;-84
2023/11/08 01:16:22;;;;;;;0.50;0.50;;;8.10;99.90;;;;;;4982120;28;20214;-85
2023/11/08 01:18:49;;;;;;;0.50;0.50;;;8.00;99.90;;;;;;4982622;28;20241;-85
2023/11/08 01:21:16;;;;;;;0.50;0.50;;;8.10;99.90;;;;;;4986405;28;20562;-83
2023/11/08 01:23:43;;;;;;;1.52;1.42;;;8.20;99.90;;;;;;4984420;28;20438;-85
2023/11/08 01:26:10;;;;;;;0.60;0.60;;;8.20;99.90;;;;;;4983652;28;20211;-84
2023/11/08 01:28:38;;;;;;;0.90;0.90;;;8.20;99.90;;;;;;4986064;28;20222;-84
2023/11/08 01:31:05;;;;;;;0.60;0.60;;;8.20;99.90;;;;;;4985539;28;20229;-84
2023/11/08 01:33:31;;;;;;;1.10;1.08;;;8.20;99.90;;;;;;4985540;28;20223;-83
2023/11/08 01:35:59;;;;;;;0.70;0.70;;;8.20;99.90;;;;;;4993449;28;20249;-86
2023/11/08 01:38:26;;;;;;;0.80;0.80;;;8.20;99.90;;;;;;4985411;28;20199;-87
2023/11/08 01:40:54;;;;;;;0.95;0.95;;;8.20;99.90;;;;;;4982045;28;20310;-86
2023/11/08 01:43:32;;;;;;;0.60;0.60;;;8.30;99.90;;;;;;4980540;28;20214;-85
2023/11/08 01:46:07;;;;;;;0.50;0.50;;;8.30;99.90;;;;;;4981010;28;20241;-85
2023/11/08 01:48:35;;;;;;;0.82;0.82;;;8.40;99.90;;;;;;4979432;28;20289;-86
2023/11/08 01:51:04;;;;;;;1.65;1.55;;;8.30;99.90;;;;;;4982941;28;20230;-86
2023/11/08 01:53:35;;;;;;;1.55;1.45;;;8.30;99.90;;;;;;4982606;28;20203;-86
2023/11/08 01:56:06;;;;;;;0.60;0.60;;;8.40;99.90;;;;;;4981173;28;20222;-87
2023/11/08 01:58:37;;;;;;;0.50;0.50;;;8.40;99.90;;;;;;4980747;28;20685;-86
2023/11/08 02:01:08;;;;;;;0.50;0.50;;;8.30;99.90;;;;;;4981789;28;20210;-83
2023/11/08 02:03:37;;;;;;;1.13;1.13;;;8.30;99.90;;;;;;4978046;28;20195;-85
2023/11/08 02:06:06;;;;;;;1.15;1.15;;;8.30;99.90;;;;;;4983952;28;20223;-85
2023/11/08 02:08:34;;;;;;;0.50;0.50;;;8.30;99.90;;;;;;4985252;28;20202;-84
2023/11/08 02:11:02;;;;;;;0.68;0.68;;;8.30;99.90;;;;;;4982847;28;20210;-84
2023/11/08 02:13:31;;;;;;;0.90;0.90;;;8.30;99.90;;;;;;4988641;28;20210;-86
2023/11/08 02:15:58;;;;;;;0.90;0.90;;;8.30;99.90;;;;;;4983696;28;20262;-84
2023/11/08 02:18:26;;;;;;;1.50;1.50;;;8.20;99.90;;;;;;4994353;28;20203;-88
2023/11/08 02:20:54;;;;;;;1.00;1.00;;;8.30;99.90;;;;;;4996683;28;20217;-85
2023/11/08 02:23:22;;;;;;;0.70;0.70;;;8.30;99.90;;;;;;4994131;28;20210;-83
2023/11/08 02:25:49;;;;;;;0.52;0.52;;;8.20;99.90;;;;;;4986094;28;20250;-85
2023/11/08 02:28:16;;;;;;;0.68;0.68;;;8.10;99.90;;;;;;4992950;28;20233;-85
2023/11/08 02:30:43;;;;;;;1.27;1.17;;;8.10;99.90;;;;;;4984616;28;20490;-84
2023/11/08 02:33:10;;;;;;;0.70;0.70;;;8.10;99.90;;;;;;4981780;28;20214;-87
2023/11/08 02:35:37;;;;;;;1.30;1.30;;;8.10;99.90;;;;;;4981341;28;20199;-85
2023/11/08 02:38:06;;;;;;;0.60;0.60;;;8.00;99.90;;;;;;4978668;28;20262;-86
2023/11/08 02:40:33;;;;;;;2.88;2.70;;;7.90;99.90;;;;;;4982320;28;20250;-84
2023/11/08 02:43:00;;;;;;;1.02;1.02;;;7.90;99.90;;;;;;4986493;28;20225;-85
2023/11/08 02:45:27;;;;;;;1.73;1.63;;;7.90;99.90;;;;;;4986064;28;20363;-85
2023/11/08 02:47:54;;;;;;;0.50;0.50;;;7.90;99.90;;;;;;4988669;28;20203;-85
2023/11/08 02:50:21;;;;;;;0.70;0.70;;;7.90;99.90;;;;;;4988624;28;20234;-84
2023/11/08 02:52:48;;;;;;;2.47;2.20;;;7.90;99.90;;;;;;4988052;28;20206;-83
2023/11/08 02:55:15;;;;;;;1.52;1.42;;;7.90;99.90;;;;;;4986513;28;20502;-85
2023/11/08 02:57:42;;;;;;;0.73;0.73;;;7.90;99.90;;;;;;4987865;28;20229;-86
2023/11/08 03:00:10;;;;;;;0.80;0.80;;;7.80;99.90;;;;;;4987448;28;20423;-87
2023/11/08 03:02:39;;;;;;;1.42;1.42;;;7.90;99.90;;;;;;4986387;28;20696;-86
2023/11/08 03:05:07;;;;;;;1.15;1.15;;;7.90;99.90;;;;;;4985812;28;20258;-84
2023/11/08 03:07:34;;;;;;;3.35;1.30;;;7.80;99.90;;;;;;4986412;28;20390;-86
2023/11/08 03:10:01;;;;;;;0.60;0.60;;;7.70;99.90;;;;;;4984840;28;20231;-86
2023/11/08 03:12:29;;;;;;;0.80;0.80;;;7.60;99.90;;;;;;4985126;28;20504;-86
2023/11/08 03:14:55;;;;;;;1.40;1.30;;;7.50;99.90;;;;;;4984734;28;20234;-86
2023/11/08 03:17:23;;;;;;;0.50;0.50;;;7.30;99.90;;;;;;4984755;28;20688;-85
2023/11/08 03:19:50;;;;;;;0.80;0.80;;;7.30;99.90;;;;;;4985266;28;20282;-87
2023/11/08 03:22:17;;;;;;;1.90;1.80;;;7.30;99.90;;;;;;4985212;28;20253;-85
2023/11/08 03:24:44;;;;;;;4.13;2.53;;;7.30;99.90;;;;;;4985912;28;20230;-87
2023/11/08 03:27:12;;;;;;;0.70;0.70;;;7.20;99.90;;;;;;4987237;28;20243;-84
2023/11/08 03:29:39;;;;;;;0.40;0.40;;;7.30;99.90;;;;;;4982147;28;20227;-85
2023/11/08 03:32:06;;;;;;;0.95;0.95;;;7.30;99.90;;;;;;4984768;28;20211;-86
2023/11/08 03:34:33;;;;;;;1.98;1.88;;;7.30;99.90;;;;;;4987485;28;20218;-84
2023/11/08 03:37:01;;;;;;;1.25;1.25;;;7.30;99.90;;;;;;4996104;28;20202;-85
2023/11/08 03:39:28;;;;;;;0.90;0.90;;;7.40;99.90;;;;;;5000316;28;20373;-87
2023/11/08 03:41:55;;;;;;;0.60;0.60;;;7.50;99.90;;;;;;4988840;28;20199;-82
2023/11/08 03:44:21;;;;;;;1.05;1.05;;;7.50;99.90;;;;;;4990457;28;20207;-84
2023/11/08 03:46:49;;;;;;;0.85;0.85;;;7.50;99.90;;;;;;4984373;28;20213;-82
2023/11/08 03:49:16;;;;;;;0.60;0.60;;;7.60;99.90;;;;;;4983779;28;20572;-85
2023/11/08 03:51:43;;;;;;;1.63;1.52;;;7.60;99.90;;;;;;4984711;28;20242;-86
2023/11/08 03:54:10;;;;;;;0.50;0.50;;;7.60;99.90;;;;;;4986117;28;20202;-84
2023/11/08 03:56:38;;;;;;;2.13;1.98;;;7.50;99.90;;;;;;4984199;28;20286;-82
2023/11/08 03:59:06;;;;;;;3.15;2.90;;;7.40;99.90;;;;;;4982449;28;20282;-82
2023/11/08 04:01:33;;;;;;;2.45;2.25;;;7.30;99.90;;;;;;4981740;28;20266;-81
2023/11/08 04:04:00;;;;;;;0.70;0.70;;;7.10;99.90;;;;;;4984224;28;20550;-82
2023/11/08 04:06:27;;;;;;;7.95;1.55;;;6.90;99.90;;;;;;4986195;28;20612;-83
2023/11/08 04:08:56;;;;;;;0.60;0.60;;;6.70;99.90;;;;;;4983524;28;20210;-83
2023/11/08 04:11:23;;;;;;;0.82;0.82;;;6.80;99.90;;;;;;4983041;28;20206;-84
2023/11/08 04:13:51;;;;;;;2.47;2.33;;;6.50;99.90;;;;;;4984108;28;20233;-83
2023/11/08 04:16:18;;;;;;;0.60;0.60;;;6.50;99.90;;;;;;4983110;28;20565;-82
2023/11/08 04:18:46;;;;;;;1.23;1.23;;;6.40;99.90;;;;;;4983919;28;20274;-82
2023/11/08 04:21:14;;;;;;;0.70;0.70;;;6.30;99.90;;;;;;4984474;28;20491;-83
2023/11/08 04:23:41;;;;;;;0.50;0.50;;;6.30;99.90;;;;;;4984922;28;20211;-85
2023/11/08 04:26:08;;;;;;;1.27;1.20;;;6.30;99.90;;;;;;4985093;28;20214;-83
2023/11/08 04:28:39;;;;;;;0.63;0.63;;;6.30;99.90;;;;;;4990594;28;20267;-85
2023/11/08 04:31:07;;;;;;;0.50;0.50;;;6.40;99.90;;;;;;4996250;28;20271;-84
2023/11/08 04:33:34;;;;;;;2.08;1.98;;;6.40;99.90;;;;;;4997732;28;20290;-85
2023/11/08 04:36:02;;;;;;;0.50;0.50;;;6.50;99.90;;;;;;4992627;28;20226;-83
2023/11/08 04:38:30;;;;;;;1.30;1.20;;;6.40;99.90;;;;;;4997660;28;20203;-85
2023/11/08 04:40:57;;;;;;;1.65;1.55;;;6.60;99.90;;;;;;4996278;28;20254;-84
2023/11/08 04:43:24;;;;;;;0.50;0.50;;;6.60;99.90;;;;;;4997584;28;20280;-87
2023/11/08 04:45:51;;;;;;;0.77;0.77;;;6.50;99.90;;;;;;4993812;28;20195;-88
2023/11/08 04:48:18;;;;;;;0.93;0.93;;;6.40;99.90;;;;;;4992856;28;20209;-88
2023/11/08 04:50:46;;;;;;;1.90;1.83;;;6.40;99.90;;;;;;4990640;28;20243;-83
2023/11/08 04:53:13;;;;;;;1.10;1.02;;;6.40;99.90;;;;;;4982193;28;20207;-85
2023/11/08 04:55:41;;;;;;;0.40;0.40;;;6.30;99.90;;;;;;4982414;28;20632;-87
2023/11/08 04:58:09;;;;;;;1.25;1.25;;;6.30;99.90;;;;;;4976090;28;20203;-85
2023/11/08 05:00:35;;;;;;;1.88;1.77;;;6.20;99.90;;;;;;4981314;28;20241;-83
2023/11/08 05:03:03;;;;;;;0.50;0.50;;;6.30;99.90;;;;;;4977489;28;20239;-84
2023/11/08 05:05:29;;;;;;;0.40;0.40;;;6.30;99.90;;;;;;4978240;28;20376;-83
2023/11/08 05:07:57;;;;;;;0.70;0.70;;;6.30;99.90;;;;;;4981825;28;20231;-84
2023/11/08 05:10:24;;;;;;;0.60;0.60;;;6.40;99.90;;;;;;4980562;28;20819;-83
2023/11/08 05:12:51;;;;;;;0.55;0.55;;;6.40;99.90;;;;;;4981199;28;20207;-87
2023/11/08 05:15:19;;;;;;;0.50;0.50;;;6.50;99.90;;;;;;4981805;28;20215;-85
2023/11/08 05:17:46;;;;;;;1.42;1.38;;;6.50;99.90;;;;;;4981938;28;20487;-86
2023/11/08 05:20:14;;;;;;;0.68;0.68;;;6.40;99.90;;;;;;4978943;28;20285;-85
2023/11/08 05:22:42;;;;;;;5.80;3.53;;;6.20;99.90;;;;;;4992858;28;20202;-81
2023/11/08 05:25:08;;;;;;;2.50;2.40;;;6.30;99.90;;;;;;4989449;28;20633;-84
2023/11/08 05:27:40;;;;;;;1.40;1.30;;;6.30;99.90;;;;;;4996351;28;20191;-86
2023/11/08 05:30:11;;;;;;;0.55;0.55;;;6.30;99.90;;;;;;4987351;28;20245;-84
2023/11/08 05:32:39;;;;;;;0.65;0.65;;;6.30;99.90;;;;;;4980244;28;20203;-83
2023/11/08 05:35:07;;;;;;;1.35;1.25;;;6.40;99.90;;;;;;4981756;28;20206;-83
2023/11/08 05:37:34;;;;;;;8.45;1.83;;;6.50;99.90;;;;;;4981745;28;20203;-84
2023/11/08 05:40:01;;;;;;;0.50;0.50;;;6.60;99.90;;;;;;4980807;28;20279;-85
2023/11/08 05:42:29;;;;;;;1.30;1.30;;;6.50;99.90;;;;;;4980548;28;20282;-83
2023/11/08 05:44:58;;;;;;;0.70;0.70;;;6.40;99.90;;;;;;4978066;28;20210;-85
2023/11/08 05:47:25;;;;;;;0.60;0.60;;;6.40;99.90;;;;;;4982477;28;20203;-85
2023/11/08 05:49:51;;;;;;;0.50;0.50;;;6.40;99.90;;;;;;4983440;28;20245;-86
2023/11/08 05:52:19;;;;;;;0.63;0.63;;;6.40;99.90;;;;;;4990612;28;20215;-87
2023/11/08 05:54:52;;;;;;;1.05;1.05;;;6.30;99.90;;;;;;4982029;28;20203;-86
2023/11/08 05:57:19;;;;;;;0.80;0.80;;;6.40;99.90;;;;;;4984116;28;20211;-88
2023/11/08 05:59:46;;;;;;;0.50;0.50;;;6.50;99.90;;;;;;4982152;28;20203;-87
2023/11/08 06:02:13;;;;;;;0.50;0.50;;;6.60;99.90;;;;;;4988618;28;20203;-86
2023/11/08 06:04:40;;;;;;;1.05;0.75;;;6.60;99.90;;;;;;4980022;28;20503;-86
2023/11/08 06:07:07;;;;;;;0.98;0.95;;;6.60;99.90;;;;;;4981843;28;20491;-87
2023/11/08 06:09:34;;;;;;;0.50;0.50;;;6.60;99.90;;;;;;4981720;28;20505;-89
2023/11/08 06:12:01;;;;;;;0.82;0.82;;;6.60;99.90;;;;;;4983670;28;20550;-87
2023/11/08 06:14:28;;;;;;;0.88;0.88;;;6.80;99.90;;;;;;4983935;28;20230;-86
2023/11/08 06:16:55;;;;;;;2.15;1.60;;;6.90;99.90;;;;;;4988715;28;20237;-89
2023/11/08 06:19:23;;;;;;;0.63;0.63;;;7.00;99.90;;;;;;4988317;28;20210;-87
2023/11/08 06:21:50;;;;;;;0.50;0.50;;;6.90;99.90;;;;;;4991257;28;20206;-88
2023/11/08 06:24:17;;;;;;;0.88;0.82;;;7.00;99.90;;;;;;4993973;28;20207;-88
2023/11/08 06:26:44;;;;;;;1.33;1.33;;;7.00;99.90;;;;;;4992374;28;20277;-90
2023/11/08 06:29:13;;;;;;;0.70;0.70;;;7.00;99.90;;;;;;4998271;28;20194;-87
2023/11/08 06:31:42;;;;;;;2.35;1.27;;;7.10;99.90;;;;;;4999350;28;20270;-89
2023/11/08 06:34:13;;;;;;;0.90;0.90;;;7.30;99.90;;;;;;4998396;28;20198;-88
2023/11/08 06:36:40;;;;;;;1.17;1.17;;;7.30;99.90;;;;;;4994292;28;20222;-88
2023/11/08 06:39:12;;;;;;;1.60;1.50;;;7.30;99.90;;;;;;4992927;28;20357;-90
2023/11/08 06:41:39;;;;;;;0.50;0.50;;;7.40;99.90;;;;;;4994330;28;20285;-88
2023/11/08 06:44:09;;;;;;;0.60;0.60;;;7.50;99.90;;;;;;4997532;28;20258;-90
2023/11/08 06:46:39;;;;;;;0.80;0.80;;;7.50;99.90;;;;;;4988823;28;20202;-87
2023/11/08 06:49:07;;;;;;;1.23;1.23;;;7.50;99.90;;;;;;4994621;28;20283;-88
2023/11/08 06:51:37;;;;;;;0.95;0.95;;;7.60;99.90;;;;;;4998042;28;20222;-90
2023/11/08 06:54:04;;;;;;;1.27;1.27;;;7.90;99.90;;;;;;4998079;28;20254;-91
2023/11/08 06:56:38;;;;;;;0.90;0.90;;;7.80;99.90;;;;;;4999629;28;20195;-90
2023/11/08 06:59:06;;;;;;;3.20;1.92;;;7.80;99.90;;;;;;4980844;28;20183;-88
2023/11/08 07:01:40;;;;;;;1.25;1.25;;;7.90;99.90;;;;;;4995858;28;20257;-87
2023/11/08 07:04:07;;;;;;;0.70;0.70;;;8.10;99.90;;;;;;4997699;28;20512;-88
2023/11/08 07:06:34;;;;;;;0.50;0.50;;;8.00;99.90;;;;;;4989636;28;20199;-91
2023/11/08 07:09:07;;;;;;;0.80;0.80;;;8.10;99.90;;;;;;4972443;28;20215;-88
2023/11/08 07:11:34;;;;;;;0.80;0.80;;;8.10;99.90;;;;;;4985862;28;20226;-89
2023/11/08 07:14:04;;;;;;;0.60;0.60;;;8.30;99.90;;;;;;4987334;28;20228;-87
2023/11/08 07:16:32;;;;;;;0.80;0.80;;;8.30;99.90;;;;;;4990851;28;20270;-89
2023/11/08 07:19:03;;;;;;;0.60;0.60;;;8.20;99.90;;;;;;4996488;28;20191;-88
2023/11/08 07:21:30;;;;;;;0.80;0.80;;;8.30;99.90;;;;;;4999176;28;20225;-89
2023/11/08 07:23:58;;;;;;;0.50;0.50;;;8.50;99.90;;;;;;4999569;28;20194;-91
2023/11/08 07:26:28;;;;;;;0.50;0.50;;;8.40;99.90;;;;;;4994994;28;20230;-88
2023/11/08 07:29:07;;;;;;;1.17;1.17;;;8.50;99.90;;;;;;4987299;28;20198;-91
2023/11/08 07:31:42;;;;;;;0.75;0.75;;;8.80;99.90;;;;;;4988744;28;20286;-90
2023/11/08 07:34:10;;;;;;;0.57;0.57;;;9.20;99.90;;;;;;4989380;28;20242;-88
2023/11/08 07:36:41;;;;;;;0.90;0.90;;;10.80;99.90;;;;;;4989675;28;20298;-90
2023/11/08 07:39:15;;;;;;;0.50;0.50;;;10.80;99.90;;;;;;4992796;28;20199;-88
2023/11/08 07:41:56;;;;;;;0.50;0.50;;;9.80;99.90;;;;;;4990341;28;20198;-88
2023/11/08 07:46:52;;;;;;;0.50;0.50;;;9.10;99.90;;;;;;4951330;29;20214;-86
2023/11/08 07:49:19;;;;;;;0.85;0.85;;;9.30;99.90;;;;;;4948198;29;20271;-88
2023/11/08 07:51:48;;;;;;;4.20;1.90;;;9.40;99.90;;;;;;4947115;29;20420;-88
2023/11/08 07:54:15;;;;;;;0.90;0.90;;;9.40;99.90;;;;;;4938967;29;20200;-86
2023/11/08 07:56:44;;;;;;;1.35;1.35;;;9.60;99.90;;;;;;4947894;29;20224;-87
2023/11/08 07:59:12;;;;;;;0.60;0.60;;;9.40;99.90;;;;;;4947494;29;20401;-87
2023/11/08 08:01:39;;;;;;;0.63;0.63;;;9.30;99.90;;;;;;4948845;29;20219;-87
2023/11/08 08:04:07;;;;;;;0.60;0.60;;;9.20;99.90;;;;;;4943947;29;20204;-90
2023/11/08 08:06:34;;;;;;;0.80;0.80;;;9.30;99.90;;;;;;4949024;29;20293;-89
2023/11/08 08:09:02;;;;;;;0.60;0.60;;;9.20;99.90;;;;;;4944746;29;20212;-86
2023/11/08 08:11:32;;;;;;;0.60;0.60;;;9.30;99.90;;;;;;4951103;29;20475;-87
2023/11/08 08:13:59;;;;;;;0.70;0.70;;;9.50;99.90;;;;;;4948675;29;20195;-88
2023/11/08 08:16:39;;;;;;;0.65;0.65;;;10.10;99.90;;;;;;4949656;29;20211;-89
2023/11/08 08:19:07;;;;;;;0.60;0.60;;;11.20;99.90;;;;;;4950450;28;20200;-88
2023/11/08 08:21:35;;;;;;;0.60;0.60;;;13.10;99.90;;;;;;4994039;23;21293;-89
2023/11/08 08:24:09;;;;;;;0.70;0.70;;;11.80;99.90;;;;;;4958525;28;20195;-89
2023/11/08 08:29:14;;;;;;;1.00;1.00;;;10.50;99.90;;;;;;5109374;23;20222;-89
2023/11/08 08:31:57;;;;;;;0.70;0.70;;;10.50;99.90;;;;;;5186554;23;20233;-89
2023/11/08 08:34:27;;;;;;;0.60;0.60;;;10.50;99.90;;;;;;5207572;23;20469;-89
2023/11/08 08:36:58;;;;;;;1.08;1.08;;;10.60;99.90;;;;;;5320756;23;20305;-90
2023/11/08 08:39:28;;;;;;;0.60;0.60;;;10.40;99.90;;;;;;5261062;23;20306;-87
2023/11/08 08:41:56;;;;;;;0.85;0.85;;;10.30;99.90;;;;;;5053232;23;20262;-86
2023/11/08 08:44:23;;;;;;;0.60;0.60;;;10.20;99.90;;;;;;5171902;23;20216;-85
2023/11/08 08:49:24;;;;;;;0.70;0.70;;;10.00;99.90;;;;;;4985951;28;20284;-90
2023/11/08 08:51:54;;;;;;;0.70;0.70;;;10.10;99.90;;;;;;5137128;23;20237;-89
2023/11/08 09:02:27;;;;;;;0.85;0.85;;;10.20;99.90;;;;;;5168539;23;20325;-91
2023/11/08 09:04:58;;;;;;;0.70;0.70;;;10.30;99.90;;;;;;5306456;23;20258;-87
2023/11/08 09:07:26;;;;;;;1.05;1.05;;;10.40;99.90;;;;;;4990016;28;20201;-89
2023/11/08 09:15:07;;;;;;;0.80;0.80;;;10.50;99.90;;;;;;4952921;29;20228;-88
2023/11/08 09:17:49;;;;;;;0.70;0.70;;;10.40;99.90;;;;;;4953927;28;20211;-91
2023/11/08 09:20:16;;;;;;;0.90;0.90;;;10.70;99.90;;;;;;5053543;23;20239;-90
2023/11/08 09:25:19;;;;;;;1.52;1.52;;;10.90;99.90;;;;;;5343202;23;20293;-90
2023/11/08 09:27:53;;;;;;;0.60;0.60;;;11.10;99.90;;;;;;5589497;23;20218;-91
2023/11/08 09:30:21;;;;;;;0.60;0.60;;;11.30;99.90;;;;;;5148327;23;20244;-89
2023/11/08 09:32:51;;;;;;;0.70;0.70;;;11.40;99.90;;;;;;5177652;23;20392;-90
2023/11/08 09:37:59;;;;;;;0.70;0.70;;;11.30;99.90;;;;;;5007755;28;20265;-90
2023/11/08 09:43:05;;;;;;;1.00;1.00;;;11.00;99.90;;;;;;5444269;23;20297;-89
2023/11/08 09:45:33;;;;;;;0.70;0.70;;;10.90;99.90;;;;;;5000799;28;20195;-90
2023/11/08 09:48:00;;;;;;;0.70;0.70;;;11.20;99.90;;;;;;5580647;23;20250;-84
2023/11/08 09:50:29;;;;;;;0.60;0.60;;;11.10;99.90;;;;;;4988112;28;20225;-86
2023/11/08 09:52:56;;;;;;;1.00;1.00;;;11.10;99.90;;;;;;4990697;28;20261;-83
2023/11/08 09:55:23;;;;;;;0.60;0.60;;;11.20;99.90;;;;;;4978730;28;20526;-84
2023/11/08 09:57:52;;;;;;;0.90;0.90;;;11.20;99.90;;;;;;4990231;28;20230;-85
2023/11/08 10:00:22;;;;;;;0.80;0.80;;;11.20;99.90;;;;;;4999486;28;20237;-85
2023/11/08 10:02:53;;;;;;;0.70;0.70;;;11.30;99.90;;;;;;5004153;28;20268;-86
2023/11/08 10:05:22;;;;;;;0.60;0.60;;;11.40;99.90;;;;;;5006519;28;20210;-86
2023/11/08 10:07:49;;;;;;;0.73;0.73;;;11.70;99.90;;;;;;4986856;28;20290;-85
2023/11/08 10:10:16;;;;;;;1.98;1.75;;;11.80;99.90;;;;;;4991560;28;20210;-86
2023/11/08 10:12:43;;;;;;;0.80;0.80;;;12.10;99.90;;;;;;4989218;28;20237;-85
2023/11/08 10:15:11;;;;;;;0.60;0.60;;;12.20;99.90;;;;;;4981313;28;20573;-85
2023/11/08 10:17:40;;;;;;;0.70;0.70;;;12.20;99.90;;;;;;4983366;28;20202;-81
2023/11/08 10:20:34;;;;;;;0.80;0.80;;;12.00;99.90;;;;;;4984081;28;20201;-86
2023/11/08 10:23:02;;;;;;;0.60;0.60;;;11.80;99.90;;;;;;4992790;28;20221;-84
2023/11/08 10:25:30;;;;;;;0.60;0.60;;;11.60;99.90;;;;;;4992300;28;20203;-83
2023/11/08 10:28:07;;;;;;;0.60;0.60;;;11.40;99.90;;;;;;4996515;28;20279;-85
2023/11/08 10:30:39;;;;;;;0.63;0.63;;;11.30;99.90;;;;;;4996643;28;20571;-85
2023/11/08 10:33:13;;;;;;;0.60;0.60;;;11.20;99.90;;;;;;4995595;28;20207;-85
2023/11/08 10:35:42;;;;;;;0.60;0.60;;;11.30;99.90;;;;;;4991124;28;20387;-85
2023/11/08 10:38:10;;;;;;;0.60;0.60;;;11.30;99.90;;;;;;4996978;28;20270;-85
2023/11/08 10:40:38;;;;;;;0.70;0.70;;;11.30;99.90;;;;;;4995372;28;20222;-84
2023/11/08 10:43:05;;;;;;;0.73;0.73;;;11.40;99.90;;;;;;4995029;28;20275;-86
2023/11/08 10:45:33;;;;;;;0.70;0.70;;;11.40;99.90;;;;;;4988111;28;20222;-86
2023/11/08 10:48:01;;;;;;;0.60;0.60;;;11.30;99.90;;;;;;4986564;28;20228;-87
2023/11/08 10:50:29;;;;;;;0.60;0.60;;;11.40;99.90;;;;;;4993768;28;20383;-86
2023/11/08 10:52:57;;;;;;;0.60;0.60;;;11.50;99.90;;;;;;4984829;28;20211;-85
2023/11/08 10:55:25;;;;;;;0.60;0.60;;;11.50;99.90;;;;;;4986120;28;20207;-86
2023/11/08 10:57:57;;;;;;;0.50;0.50;;;11.80;99.90;;;;;;4984663;28;20223;-86
2023/11/08 11:00:26;;;;;;;0.50;0.50;;;11.80;99.90;;;;;;4977522;28;20237;-85
2023/11/08 11:02:57;;;;;;;0.60;0.60;;;11.90;99.90;;;;;;4984914;28;20200;-85
2023/11/08 11:05:30;;;;;;;2.20;1.70;;;11.80;99.90;;;;;;4979695;28;20210;-88
2023/11/08 11:08:00;;;;;;;0.60;0.60;;;11.80;99.90;;;;;;4995918;28;20223;-90
2023/11/08 11:10:28;;;;;;;1.45;1.45;;;11.70;99.90;;;;;;4989562;28;20242;-86
2023/11/08 11:13:04;;;;;;;0.60;0.60;;;11.70;99.90;;;;;;4992148;28;20242;-89
2023/11/08 11:15:56;;;;;;;0.60;0.60;;;11.60;99.90;;;;;;5047770;23;20309;-88
2023/11/08 11:18:32;;;;;;;0.60;0.60;;;11.80;99.90;;;;;;5003215;28;20194;-88
2023/11/08 11:21:15;;;;;;;0.60;0.60;;;11.30;99.90;;;;;;4997435;28;20269;-87
2023/11/08 11:23:45;;;;;;;0.60;0.60;;;11.30;99.90;;;;;;5002510;28;20402;-85
2023/11/08 11:26:12;;;;;;;0.80;0.80;;;11.20;99.90;;;;;;4992329;28;20190;-89
2023/11/08 11:28:52;;;;;;;0.98;0.98;;;11.10;99.90;;;;;;4998908;28;20198;-86
2023/11/08 11:31:32;;;;;;;0.60;0.60;;;10.90;99.90;;;;;;5000720;28;20261;-90
2023/11/08 11:34:00;;;;;;;0.60;0.60;;;10.80;99.90;;;;;;4990701;28;20210;-87
2023/11/08 11:37:02;;;;;;;2.95;2.72;;;10.80;99.90;;;;;;4992821;28;20244;-89
2023/11/08 11:39:33;;;;;;;0.60;0.60;;;10.80;99.90;;;;;;5002057;28;20218;-89
2023/11/08 11:42:14;;;;;;;0.63;0.63;;;10.70;99.90;;;;;;5006101;28;20273;-88
2023/11/08 11:45:01;;;;;;;0.60;0.60;;;10.60;99.90;;;;;;4993864;28;20198;-90
2023/11/08 11:47:29;;;;;;;0.70;0.70;;;10.80;99.90;;;;;;5010339;28;20202;-89
2023/11/08 11:50:16;;;;;;;0.60;0.60;;;11.20;99.90;;;;;;4999927;28;20503;-88
2023/11/08 11:52:49;;;;;;;0.60;0.60;;;11.30;99.90;;;;;;4989462;28;20223;-89
2023/11/08 11:55:19;;;;;;;0.50;0.50;;;11.10;99.90;;;;;;4999528;28;20198;-89
2023/11/08 11:57:50;;;;;;;0.60;0.60;;;11.10;99.90;;;;;;4999489;28;20494;-87
2023/11/08 12:00:17;;;;;;;0.60;0.60;;;10.50;99.90;;;;;;4991949;28;20237;-85
2023/11/08 12:02:45;;;;;;;0.73;0.73;;;10.30;99.90;;;;;;4992013;28;20254;-86
2023/11/08 12:05:12;;;;;;;0.80;0.80;;;10.10;99.90;;;;;;4992810;28;20457;-89
2023/11/08 12:07:42;;;;;;;0.80;0.80;;;9.80;99.90;;;;;;4995481;28;20211;-90
2023/11/08 12:10:18;;;;;;;0.70;0.70;;;9.70;99.90;;;;;;4986795;28;20208;-86
2023/11/08 12:12:45;;;;;;;0.50;0.50;;;9.60;99.90;;;;;;5004755;28;20306;-86
2023/11/08 12:15:20;;;;;;;0.60;0.60;;;9.40;99.90;;;;;;4985670;28;20213;-85
2023/11/08 12:17:52;;;;;;;0.57;0.57;;;9.70;99.90;;;;;;4993509;28;20195;-88
2023/11/08 12:20:20;;;;;;;0.60;0.60;;;9.70;99.90;;;;;;5004222;28;20183;-88
2023/11/08 12:23:15;;;;;;;0.60;0.60;;;9.90;99.90;;;;;;4976891;28;20208;-86
2023/11/08 12:25:43;;;;;;;0.60;0.60;;;9.80;99.90;;;;;;4971540;29;20198;-86
2023/11/08 12:28:09;;;;;;;0.50;0.50;;;9.70;99.90;;;;;;4963213;28;20204;-84
2023/11/08 12:30:37;;;;;;;4.07;0.98;;;9.80;99.90;;;;;;4969524;29;20211;-88
2023/11/08 12:33:04;;;;;;;0.50;0.50;;;10.00;99.90;;;;;;4967400;29;20234;-89
2023/11/08 12:35:34;;;;;;;0.95;0.95;;;10.20;99.90;;;;;;4967992;28;20211;-89
2023/11/08 12:38:01;;;;;;;0.60;0.60;;;10.20;99.90;;;;;;4967751;29;20211;-87
2023/11/08 12:40:28;;;;;;;0.50;0.50;;;10.10;99.90;;;;;;4969872;28;20254;-86
2023/11/08 12:42:55;;;;;;;0.60;0.60;;;10.30;99.90;;;;;;4967281;29;20216;-87
2023/11/08 12:45:42;;;;;;;0.50;0.50;;;10.30;99.90;;;;;;4963041;29;20199;-87
2023/11/08 12:48:32;;;;;;;0.50;0.50;;;10.30;99.90;;;;;;4967324;28;20323;-88
2023/11/08 12:51:09;;;;;;;0.60;0.60;;;10.30;99.90;;;;;;4968298;29;20199;-89
2023/11/08 12:53:38;;;;;;;0.63;0.63;;;10.20;99.90;;;;;;4961212;29;20262;-86
2023/11/08 12:56:06;;;;;;;1.45;1.35;;;10.20;99.90;;;;;;4974344;28;20222;-87
2023/11/08 12:58:37;;;;;;;0.50;0.50;;;10.10;99.90;;;;;;4962550;28;20252;-88
2023/11/08 13:01:06;;;;;;;0.50;0.50;;;10.10;99.90;;;;;;4970247;29;20262;-88
2023/11/08 13:03:40;;;;;;;0.90;0.90;;;10.00;99.90;;;;;;4967082;28;20468;-88
2023/11/08 13:06:10;;;;;;;0.80;0.80;;;10.10;99.90;;;;;;4965761;29;20199;-86
2023/11/08 13:08:40;;;;;;;0.60;0.60;;;10.10;99.90;;;;;;4954593;28;20212;-87
2023/11/08 13:11:07;;;;;;;0.50;0.50;;;10.10;99.90;;;;;;4965854;28;20208;-87
2023/11/08 13:13:35;;;;;;;0.50;0.50;;;10.00;99.90;;;;;;4964916;28;20263;-88
2023/11/08 13:16:05;;;;;;;1.67;1.58;;;10.10;99.90;;;;;;4964075;28;20479;-87
2023/11/08 13:18:35;;;;;;;0.60;0.60;;;10.10;99.90;;;;;;4957397;28;20235;-88
2023/11/08 13:21:02;;;;;;;1.50;1.20;;;10.20;99.90;;;;;;4964680;28;20433;-87
2023/11/08 13:23:30;;;;;;;0.60;0.60;;;10.30;99.90;;;;;;4969909;28;20211;-89
2023/11/08 13:26:17;;;;;;;0.98;0.98;;;10.30;99.90;;;;;;4970063;28;20250;-89
2023/11/08 13:28:44;;;;;;;0.57;0.57;;;10.30;99.90;;;;;;4963038;29;20216;-87
2023/11/08 13:31:14;;;;;;;0.50;0.50;;;10.20;99.90;;;;;;4981578;28;20222;-88